createdAt,value
2023-02-14T00:00:50.459Z,8.76
2023-02-14T00:03:16.993Z,8.71
2023-02-14T00:05:43.671Z,8.70
2023-02-14T00:08:10.475Z,8.69
2023-02-14T00:10:37.154Z,8.70
2023-02-14T00:13:04.666Z,8.66
2023-02-14T00:15:31.405Z,8.64
2023-02-14T00:18:00.919Z,8.60
2023-02-14T00:20:28.880Z,8.61
2023-02-14T00:22:55.543Z,8.62
2023-02-14T00:25:22.147Z,8.66
2023-02-14T00:27:48.796Z,8.70
2023-02-14T00:30:15.772Z,8.74
2023-02-14T00:32:42.894Z,8.78
2023-02-14T00:35:10.958Z,8.82
2023-02-14T00:37:40.862Z,8.85
2023-02-14T00:40:07.939Z,8.89
2023-02-14T00:42:34.956Z,8.90
2023-02-14T00:45:01.501Z,8.88
2023-02-14T00:47:28.239Z,8.84
2023-02-14T00:49:54.893Z,8.78
2023-02-14T00:52:21.608Z,8.70
2023-02-14T00:54:48.152Z,8.58
2023-02-14T00:57:14.774Z,8.45
2023-02-14T00:59:41.337Z,8.32
2023-02-14T01:02:08.200Z,8.23
2023-02-14T01:04:35.098Z,8.17
2023-02-14T01:07:01.625Z,8.13
2023-02-14T01:09:28.170Z,8.07
2023-02-14T01:11:55.109Z,8.01
2023-02-14T01:14:21.675Z,7.95
2023-02-14T01:16:49.754Z,7.90
2023-02-14T01:19:16.763Z,7.84
2023-02-14T01:21:43.912Z,7.79
2023-02-14T01:24:12.071Z,7.72
2023-02-14T01:26:39.431Z,7.68
2023-02-14T01:29:06.781Z,7.67
2023-02-14T01:31:35.518Z,7.69
2023-02-14T01:34:02.882Z,7.73
2023-02-14T01:36:38.058Z,7.78
2023-02-14T01:39:07.876Z,7.81
2023-02-14T01:41:37.892Z,7.83
2023-02-14T01:44:27.572Z,7.84
2023-02-14T01:46:55.631Z,7.86
2023-02-14T01:49:27.595Z,7.89
2023-02-14T01:52:10.529Z,7.93
2023-02-14T01:54:52.100Z,7.97
2023-02-14T01:57:22.739Z,8.00
2023-02-14T01:59:56.014Z,8.05
2023-02-14T02:02:26.009Z,8.09
2023-02-14T02:04:55.988Z,8.13
2023-02-14T02:07:26.504Z,8.15
2023-02-14T02:09:56.908Z,8.17
2023-02-14T02:12:23.847Z,8.20
2023-02-14T02:14:53.251Z,8.20
2023-02-14T02:17:37.807Z,8.21
2023-02-14T02:20:22.977Z,8.22
2023-02-14T02:23:04.770Z,8.23
2023-02-14T02:25:53.746Z,8.25
2023-02-14T02:28:39.207Z,8.24
2023-02-14T02:31:27.274Z,8.26
2023-02-14T02:34:21.634Z,8.25
2023-02-14T02:37:02.709Z,8.26
2023-02-14T02:39:41.837Z,8.22
2023-02-14T02:42:34.183Z,8.17
2023-02-14T02:45:00.810Z,8.13
2023-02-14T02:47:53.165Z,8.09
2023-02-14T02:50:51.632Z,8.06
2023-02-14T02:53:42.862Z,7.99
2023-02-14T02:56:33.445Z,7.95
2023-02-14T02:59:04.834Z,7.90
2023-02-14T03:01:36.584Z,7.89
2023-02-14T03:04:25.620Z,7.89
2023-02-14T03:06:52.860Z,7.89
2023-02-14T03:09:19.495Z,7.92
2023-02-14T03:12:12.961Z,7.93
2023-02-14T03:14:50.859Z,7.94
2023-02-14T03:17:49.458Z,7.96
2023-02-14T03:20:26.734Z,7.97
2023-02-14T03:23:27.875Z,7.94
2023-02-14T03:26:04.857Z,7.92
2023-02-14T03:28:59.249Z,7.87
2023-02-14T03:31:43.122Z,7.80
2023-02-14T03:34:22.107Z,7.74
2023-02-14T03:37:01.134Z,7.72
2023-02-14T03:39:38.219Z,7.70
2023-02-14T03:42:14.379Z,7.68
2023-02-14T03:44:44.188Z,7.68
2023-02-14T03:47:18.711Z,7.65
2023-02-14T03:49:50.874Z,7.64
2023-02-14T03:52:19.563Z,7.64
2023-02-14T03:54:49.378Z,7.63
2023-02-14T03:57:23.693Z,7.63
2023-02-14T03:59:50.628Z,7.63
2023-02-14T04:02:23.920Z,7.62
2023-02-14T04:04:52.404Z,7.61
2023-02-14T04:07:23.028Z,7.60
2023-02-14T04:09:50.386Z,7.60
2023-02-14T04:12:24.010Z,7.59
2023-02-14T04:14:55.842Z,7.59
2023-02-14T04:17:40.706Z,7.57
2023-02-14T04:20:07.341Z,7.55
2023-02-14T04:22:33.875Z,7.55
2023-02-14T04:25:00.405Z,7.53
2023-02-14T04:27:26.942Z,7.49
2023-02-14T04:29:53.616Z,7.45
2023-02-14T04:32:21.743Z,7.43
2023-02-14T04:34:48.493Z,7.42
2023-02-14T04:37:17.891Z,7.43
2023-02-14T04:39:44.529Z,7.43
2023-02-14T04:42:12.497Z,7.43
2023-02-14T04:44:39.239Z,7.43
2023-02-14T04:47:06.692Z,7.42
2023-02-14T04:49:33.226Z,7.41
2023-02-14T04:52:00.371Z,7.40
2023-02-14T04:54:27.227Z,7.37
2023-02-14T04:56:53.852Z,7.35
2023-02-14T04:59:20.766Z,7.34
2023-02-14T05:01:47.464Z,7.31
2023-02-14T05:04:14.166Z,7.30
2023-02-14T05:06:40.913Z,7.28
2023-02-14T05:09:07.442Z,7.27
2023-02-14T05:11:33.986Z,7.26
2023-02-14T05:14:00.608Z,7.25
2023-02-14T05:16:27.197Z,7.26
2023-02-14T05:18:53.983Z,7.26
2023-02-14T05:21:20.621Z,7.27
2023-02-14T05:23:47.262Z,7.25
2023-02-14T05:26:13.892Z,7.19
2023-02-14T05:28:41.180Z,7.11
2023-02-14T05:31:09.023Z,7.00
2023-02-14T05:33:35.752Z,6.88
2023-02-14T05:36:02.905Z,6.77
2023-02-14T05:38:30.674Z,6.67
2023-02-14T05:40:57.389Z,6.60
2023-02-14T05:43:24.136Z,6.53
2023-02-14T05:45:50.818Z,6.49
2023-02-14T05:48:17.614Z,6.48
2023-02-14T05:50:45.653Z,6.49
2023-02-14T05:53:13.140Z,6.50
2023-02-14T05:55:39.786Z,6.54
2023-02-14T05:58:06.932Z,6.57
2023-02-14T06:00:34.501Z,6.60
2023-02-14T06:03:01.272Z,6.62
2023-02-14T06:05:28.069Z,6.66
2023-02-14T06:07:54.807Z,6.66
2023-02-14T06:10:24.724Z,6.68
2023-02-14T06:12:53.716Z,6.71
2023-02-14T06:15:20.556Z,6.73
2023-02-14T06:17:55.091Z,6.74
2023-02-14T06:20:24.325Z,6.76
2023-02-14T06:22:52.086Z,6.76
2023-02-14T06:25:19.160Z,6.78
2023-02-14T06:27:48.261Z,6.77
2023-02-14T06:30:17.404Z,6.78
2023-02-14T06:32:44.639Z,6.74
2023-02-14T06:35:11.549Z,6.70
2023-02-14T06:37:38.871Z,6.65
2023-02-14T06:40:06.289Z,6.63
2023-02-14T06:42:32.827Z,6.59
2023-02-14T06:44:59.545Z,6.55
2023-02-14T06:47:26.057Z,6.52
2023-02-14T06:49:52.668Z,6.52
2023-02-14T06:52:19.253Z,6.52
2023-02-14T06:54:45.850Z,6.53
2023-02-14T06:57:12.319Z,6.54
2023-02-14T06:59:39.017Z,6.56
2023-02-14T07:02:05.696Z,6.58
2023-02-14T07:04:32.316Z,6.59
2023-02-14T07:06:59.034Z,6.60
2023-02-14T07:09:25.597Z,6.61
2023-02-14T07:11:52.139Z,6.62
2023-02-14T07:14:18.776Z,6.63
2023-02-14T07:16:46.023Z,6.63
2023-02-14T07:19:12.868Z,6.64
2023-02-14T07:21:39.507Z,6.64
2023-02-14T07:24:06.238Z,6.66
2023-02-14T07:26:32.877Z,6.67
2023-02-14T07:28:59.413Z,6.68
2023-02-14T07:31:26.043Z,6.69
2023-02-14T07:33:52.594Z,6.71
2023-02-14T07:36:19.941Z,6.72
2023-02-14T07:38:46.475Z,6.73
2023-02-14T07:41:13.025Z,6.75
2023-02-14T07:43:39.838Z,6.76
2023-02-14T07:46:06.965Z,6.80
2023-02-14T07:48:34.452Z,6.84
2023-02-14T07:51:01.804Z,6.90
2023-02-14T07:53:28.659Z,6.98
2023-02-14T07:55:55.382Z,7.09
2023-02-14T07:58:22.019Z,7.21
2023-02-14T08:00:48.656Z,7.32
2023-02-14T08:03:15.397Z,7.42
2023-02-14T08:05:42.831Z,7.52
2023-02-14T08:08:09.487Z,7.61
2023-02-14T08:10:36.122Z,7.69
2023-02-14T08:13:03.676Z,7.70
2023-02-14T08:15:51.329Z,7.69
2023-02-14T08:18:20.409Z,7.66
2023-02-14T08:20:49.847Z,7.64
2023-02-14T08:23:18.176Z,7.65
2023-02-14T08:25:44.836Z,7.64
2023-02-14T08:28:13.741Z,7.67
2023-02-14T08:30:41.766Z,7.72
2023-02-14T08:33:08.824Z,7.81
2023-02-14T08:35:36.063Z,7.93
2023-02-14T08:38:03.929Z,8.08
2023-02-14T08:40:30.770Z,8.24
2023-02-14T08:42:57.513Z,8.42
2023-02-14T08:45:24.173Z,8.56
2023-02-14T08:47:50.893Z,8.72
2023-02-14T08:50:18.646Z,8.89
2023-02-14T08:52:45.316Z,9.03
2023-02-14T08:55:13.773Z,9.17
2023-02-14T08:57:41.026Z,9.31
2023-02-14T09:00:09.927Z,9.47
2023-02-14T09:02:36.879Z,9.63
2023-02-14T09:05:04.062Z,9.79
2023-02-14T09:07:30.739Z,9.94
2023-02-14T09:09:59.230Z,10.10
2023-02-14T09:12:25.864Z,10.24
2023-02-14T09:14:52.511Z,10.40
2023-02-14T09:17:19.126Z,10.57
2023-02-14T09:19:46.115Z,10.71
2023-02-14T09:22:12.652Z,10.91
2023-02-14T09:24:41.602Z,11.08
2023-02-14T09:27:09.151Z,11.23
2023-02-14T09:29:35.792Z,11.38
2023-02-14T09:32:02.751Z,11.52
2023-02-14T09:34:48.213Z,11.64
2023-02-14T09:37:34.041Z,11.79
2023-02-14T09:40:00.652Z,11.91
2023-02-14T09:42:37.407Z,12.04
2023-02-14T09:45:10.798Z,12.23
2023-02-14T09:47:52.490Z,12.35
2023-02-14T09:50:25.788Z,12.51
2023-02-14T09:52:57.238Z,12.69
2023-02-14T09:55:30.419Z,12.85
2023-02-14T09:57:56.964Z,12.99
2023-02-14T10:00:34.960Z,13.13
2023-02-14T10:03:28.426Z,13.28
2023-02-14T10:06:37.969Z,13.42
2023-02-14T10:09:26.619Z,13.60
2023-02-14T10:11:54.892Z,13.74
2023-02-14T10:14:25.733Z,13.85
2023-02-14T10:16:59.695Z,13.95
2023-02-14T10:19:39.995Z,14.09
2023-02-14T10:22:14.111Z,14.19
2023-02-14T10:24:49.656Z,14.33
2023-02-14T10:27:29.706Z,14.44
2023-02-14T10:29:56.314Z,14.57
2023-02-14T10:32:34.158Z,14.65
2023-02-14T10:35:05.890Z,14.76
2023-02-14T10:37:56.900Z,14.91
2023-02-14T10:41:01.195Z,15.06
2023-02-14T10:43:40.348Z,15.21
2023-02-14T10:46:31.406Z,15.37
2023-02-14T10:49:44.187Z,15.46
2023-02-14T10:52:29.445Z,15.56
2023-02-14T10:55:00.082Z,15.68
2023-02-14T10:57:33.881Z,15.85
2023-02-14T11:00:08.503Z,16.03
2023-02-14T11:02:41.425Z,16.12
2023-02-14T11:05:22.465Z,16.14
2023-02-14T11:07:49.514Z,16.19
2023-02-14T11:10:20.398Z,16.28
2023-02-14T11:12:47.184Z,16.33
2023-02-14T11:15:13.726Z,16.35
2023-02-14T11:17:41.692Z,16.38
2023-02-14T11:20:30.558Z,16.51
2023-02-14T11:22:57.495Z,16.70
2023-02-14T11:25:26.172Z,16.81
2023-02-14T11:28:17.073Z,16.81
2023-02-14T11:30:46.301Z,16.81
2023-02-14T11:33:42.604Z,16.92
2023-02-14T11:36:17.494Z,17.02
2023-02-14T11:38:45.813Z,17.00
2023-02-14T11:41:15.019Z,16.96
2023-02-14T11:43:44.002Z,16.93
2023-02-14T11:46:17.034Z,16.96
2023-02-14T11:49:02.157Z,17.01
2023-02-14T11:51:33.065Z,17.04
2023-02-14T11:54:04.955Z,17.11
2023-02-14T11:56:52.070Z,17.22
2023-02-14T11:59:30.688Z,17.29
2023-02-14T12:02:09.564Z,17.36
2023-02-14T12:04:46.145Z,17.49
2023-02-14T12:07:54.192Z,17.62
2023-02-14T12:10:31.791Z,17.72
2023-02-14T12:13:24.529Z,17.86
2023-02-14T12:15:56.353Z,18.02
2023-02-14T12:18:47.196Z,18.12
2023-02-14T12:21:38.095Z,18.15
2023-02-14T12:24:23.476Z,18.19
2023-02-14T12:26:52.772Z,18.18
2023-02-14T12:29:30.005Z,18.18
2023-02-14T12:32:14.781Z,18.22
2023-02-14T12:34:41.571Z,18.33
2023-02-14T12:37:21.327Z,18.38
2023-02-14T12:40:19.371Z,18.48
2023-02-14T12:42:55.238Z,18.58
2023-02-14T12:45:46.575Z,18.62
2023-02-14T12:49:00.788Z,18.66
2023-02-14T12:51:55.896Z,18.71
2023-02-14T12:55:09.725Z,18.75
2023-02-14T12:57:53.882Z,18.76
2023-02-14T13:00:39.192Z,18.73
2023-02-14T13:03:20.711Z,18.68
2023-02-14T13:06:04.648Z,18.71
2023-02-14T13:08:51.805Z,18.75
2023-02-14T13:11:34.429Z,18.73
2023-02-14T13:14:36.793Z,18.69
2023-02-14T13:17:06.393Z,18.77
2023-02-14T13:19:42.249Z,18.78
2023-02-14T13:22:14.620Z,18.80
2023-02-14T13:24:44.220Z,18.84
2023-02-14T13:27:22.177Z,18.91
2023-02-14T13:30:01.219Z,18.94
2023-02-14T13:32:33.133Z,18.95
2023-02-14T13:35:00.974Z,19.00
2023-02-14T13:37:28.427Z,19.02
2023-02-14T13:40:02.669Z,19.00
2023-02-14T13:42:47.715Z,19.09
2023-02-14T13:45:29.471Z,19.16
2023-02-14T13:48:27.474Z,19.13
2023-02-14T13:51:04.246Z,19.13
2023-02-14T13:53:41.531Z,19.17
2023-02-14T13:56:17.090Z,19.18
2023-02-14T13:58:48.120Z,19.18
2023-02-14T14:01:34.624Z,19.16
2023-02-14T14:04:09.570Z,19.17
2023-02-14T14:07:18.087Z,19.18
2023-02-14T14:09:44.923Z,19.19
2023-02-14T14:12:26.454Z,19.16
2023-02-14T14:15:05.025Z,19.11
2023-02-14T14:17:48.238Z,19.09
2023-02-14T14:20:20.534Z,19.10
2023-02-14T14:22:55.527Z,19.08
2023-02-14T14:25:34.749Z,19.02
2023-02-14T14:28:01.590Z,18.97
2023-02-14T14:30:35.209Z,18.94
2023-02-14T14:33:17.016Z,18.90
2023-02-14T14:35:54.798Z,18.89
2023-02-14T14:38:21.951Z,18.88
2023-02-14T14:40:49.622Z,18.81
2023-02-14T14:43:34.572Z,18.75
2023-02-14T14:46:03.089Z,18.69
2023-02-14T14:48:32.453Z,18.62
2023-02-14T14:51:00.030Z,18.54
2023-02-14T14:53:44.409Z,18.49
2023-02-14T14:56:24.118Z,18.42
2023-02-14T14:58:51.265Z,18.38
2023-02-14T15:01:48.067Z,18.37
2023-02-14T15:04:14.620Z,18.36
2023-02-14T15:06:41.390Z,18.33
2023-02-14T15:09:16.778Z,18.30
2023-02-14T15:12:02.661Z,18.29
2023-02-14T15:14:32.732Z,18.25
2023-02-14T15:17:03.475Z,18.14
2023-02-14T15:19:38.699Z,18.08
2023-02-14T15:22:07.900Z,18.03
2023-02-14T15:24:37.931Z,17.99
2023-02-14T15:27:05.067Z,17.95
2023-02-14T15:29:33.138Z,17.89
2023-02-14T15:32:03.154Z,17.82
2023-02-14T15:34:36.239Z,17.74
2023-02-14T15:37:06.302Z,17.65
2023-02-14T15:39:37.195Z,17.58
2023-02-14T15:42:05.912Z,17.53
2023-02-14T15:44:32.826Z,17.47
2023-02-14T15:47:02.834Z,17.45
2023-02-14T15:49:38.197Z,17.42
2023-02-14T15:52:06.351Z,17.40
2023-02-14T15:54:39.231Z,17.34
2023-02-14T15:57:16.518Z,17.31
2023-02-14T15:59:43.354Z,17.26
2023-02-14T16:02:37.858Z,17.15
2023-02-14T16:05:26.082Z,17.09
2023-02-14T16:08:21.798Z,17.01
2023-02-14T16:11:14.563Z,16.94
2023-02-14T16:13:46.813Z,16.87
2023-02-14T16:16:14.904Z,16.78
2023-02-14T16:18:47.712Z,16.71
2023-02-14T16:21:35.230Z,16.63
2023-02-14T16:24:08.096Z,16.57
2023-02-14T16:26:36.686Z,16.48
2023-02-14T16:29:04.824Z,16.41
2023-02-14T16:31:32.881Z,16.33
2023-02-14T16:34:00.244Z,16.25
2023-02-14T16:36:29.554Z,16.16
2023-02-14T16:38:57.515Z,16.09
2023-02-14T16:41:36.235Z,16.04
2023-02-14T16:44:02.873Z,15.97
2023-02-14T16:46:31.271Z,15.88
2023-02-14T16:48:58.548Z,15.77
2023-02-14T16:51:29.638Z,15.65
2023-02-14T16:54:00.382Z,15.56
2023-02-14T16:56:46.878Z,15.47
2023-02-14T16:59:13.408Z,15.37
2023-02-14T17:01:41.101Z,15.25
2023-02-14T17:04:07.813Z,15.15
2023-02-14T17:06:37.725Z,15.02
2023-02-14T17:09:09.887Z,14.92
2023-02-14T17:11:40.010Z,14.81
2023-02-14T17:14:07.462Z,14.67
2023-02-14T17:16:34.412Z,14.54
2023-02-14T17:19:02.890Z,14.45
2023-02-14T17:21:29.914Z,14.36
2023-02-14T17:23:57.284Z,14.23
2023-02-14T17:26:24.239Z,14.14
2023-02-14T17:28:50.870Z,14.07
2023-02-14T17:31:18.073Z,13.99
2023-02-14T17:33:44.655Z,13.93
2023-02-14T17:36:13.443Z,13.87
2023-02-14T17:38:43.385Z,13.82
2023-02-14T17:41:14.802Z,13.76
2023-02-14T17:43:41.546Z,13.67
2023-02-14T17:46:08.528Z,13.59
2023-02-14T17:48:35.222Z,13.50
2023-02-14T17:51:06.775Z,13.41
2023-02-14T17:53:34.332Z,13.35
2023-02-14T17:56:12.751Z,13.29
2023-02-14T17:58:39.585Z,13.26
2023-02-14T18:01:08.995Z,13.21
2023-02-14T18:03:36.148Z,13.17
2023-02-14T18:06:03.410Z,13.11
2023-02-14T18:08:38.321Z,13.07
2023-02-14T18:11:10.285Z,13.02
2023-02-14T18:13:37.780Z,12.98
2023-02-14T18:16:06.643Z,12.92
2023-02-14T18:18:33.476Z,12.89
2023-02-14T18:21:02.362Z,12.83
2023-02-14T18:23:30.706Z,12.78
2023-02-14T18:26:01.064Z,12.69
2023-02-14T18:28:28.207Z,12.64
2023-02-14T18:30:55.068Z,12.58
2023-02-14T18:33:21.635Z,12.55
2023-02-14T18:35:48.212Z,12.53
2023-02-14T18:38:14.749Z,12.53
2023-02-14T18:40:42.935Z,12.52
2023-02-14T18:43:09.661Z,12.50
2023-02-14T18:45:37.872Z,12.46
2023-02-14T18:48:06.007Z,12.44
2023-02-14T18:50:33.660Z,12.41
2023-02-14T18:53:00.303Z,12.37
2023-02-14T18:55:27.398Z,12.32
2023-02-14T18:57:54.286Z,12.28
2023-02-14T19:00:21.839Z,12.24
2023-02-14T19:02:48.759Z,12.19
2023-02-14T19:05:15.325Z,12.15
2023-02-14T19:07:41.966Z,12.11
2023-02-14T19:10:09.410Z,12.04
2023-02-14T19:12:36.165Z,11.97
2023-02-14T19:15:03.544Z,11.90
2023-02-14T19:17:30.250Z,11.81
2023-02-14T19:19:57.312Z,11.72
2023-02-14T19:22:24.045Z,11.63
2023-02-14T19:24:52.995Z,11.54
2023-02-14T19:27:21.526Z,11.48
2023-02-14T19:29:48.279Z,11.43
2023-02-14T19:32:15.075Z,11.42
2023-02-14T19:34:41.734Z,11.38
2023-02-14T19:37:08.451Z,11.30
2023-02-14T19:39:35.110Z,11.18
2023-02-14T19:42:01.636Z,11.07
2023-02-14T19:44:29.358Z,10.98
2023-02-14T19:46:56.658Z,10.93
2023-02-14T19:49:23.656Z,10.90
2023-02-14T19:51:53.381Z,10.86
2023-02-14T19:54:21.973Z,10.81
2023-02-14T19:56:48.703Z,10.77
2023-02-14T19:59:20.119Z,10.74
2023-02-14T20:01:51.014Z,10.70
2023-02-14T20:04:20.697Z,10.64
2023-02-14T20:06:48.051Z,10.55
2023-02-14T20:09:16.027Z,10.47
2023-02-14T20:11:49.839Z,10.36
2023-02-14T20:14:19.528Z,10.30
2023-02-14T20:16:47.422Z,10.23
2023-02-14T20:19:16.699Z,10.16
2023-02-14T20:21:45.584Z,10.09
2023-02-14T20:24:17.440Z,10.05
2023-02-14T20:26:44.280Z,10.00
2023-02-14T20:29:11.125Z,9.96
2023-02-14T20:31:42.871Z,9.89
2023-02-14T20:34:09.716Z,9.83
2023-02-14T20:36:36.256Z,9.76
2023-02-14T20:39:05.053Z,9.70
2023-02-14T20:41:34.457Z,9.61
2023-02-14T20:44:10.426Z,9.47
2023-02-14T20:46:37.258Z,9.42
2023-02-14T20:49:04.080Z,9.39
2023-02-14T20:51:31.020Z,9.38
2023-02-14T20:53:57.646Z,9.36
2023-02-14T20:56:24.622Z,9.35
2023-02-14T20:58:51.242Z,9.33
2023-02-14T21:01:21.214Z,9.31
2023-02-14T21:03:52.846Z,9.27
2023-02-14T21:06:21.593Z,9.20
2023-02-14T21:08:48.945Z,9.14
2023-02-14T21:11:17.849Z,9.09
2023-02-14T21:13:44.359Z,9.04
2023-02-14T21:16:16.434Z,9.00
2023-02-14T21:18:48.635Z,8.95
2023-02-14T21:21:32.545Z,8.86
2023-02-14T21:24:09.220Z,8.77
2023-02-14T21:26:37.805Z,8.72
2023-02-14T21:29:05.562Z,8.67
2023-02-14T21:31:32.725Z,8.66
2023-02-14T21:34:01.600Z,8.67
2023-02-14T21:36:30.600Z,8.68
2023-02-14T21:38:58.990Z,8.64
2023-02-14T21:41:28.267Z,8.58
2023-02-14T21:43:58.694Z,8.50
2023-02-14T21:46:31.743Z,8.45
2023-02-14T21:49:20.446Z,8.42
2023-02-14T21:51:47.786Z,8.43
2023-02-14T21:54:15.455Z,8.42
2023-02-14T21:56:42.432Z,8.41
2023-02-14T21:59:09.810Z,8.41
2023-02-14T22:01:38.393Z,8.39
2023-02-14T22:04:09.186Z,8.38
2023-02-14T22:06:38.874Z,8.38
2023-02-14T22:09:07.006Z,8.36
2023-02-14T22:11:33.901Z,8.31
2023-02-14T22:14:00.624Z,8.28
2023-02-14T22:16:27.389Z,8.24
2023-02-14T22:18:53.938Z,8.21
2023-02-14T22:21:26.573Z,8.16
2023-02-14T22:23:55.167Z,8.13
2023-02-14T22:26:24.553Z,8.11
2023-02-14T22:28:53.968Z,8.09
2023-02-14T22:31:20.899Z,8.05
2023-02-14T22:33:48.756Z,8.00
2023-02-14T22:36:15.910Z,7.95
2023-02-14T22:38:42.653Z,7.89
2023-02-14T22:41:18.210Z,7.84
2023-02-14T22:43:45.237Z,7.77
2023-02-14T22:46:12.948Z,7.71
2023-02-14T22:48:40.250Z,7.65
2023-02-14T22:51:25.730Z,7.58
2023-02-14T22:53:56.266Z,7.53
2023-02-14T22:56:27.296Z,7.46
2023-02-14T22:58:59.364Z,7.39
2023-02-14T23:01:26.660Z,7.34
2023-02-14T23:03:55.836Z,7.30
2023-02-14T23:06:23.772Z,7.27
2023-02-14T23:08:50.732Z,7.24
2023-02-14T23:11:20.545Z,7.22
2023-02-14T23:14:07.134Z,7.21
2023-02-14T23:16:52.428Z,7.22
2023-02-14T23:19:40.654Z,7.26
2023-02-14T23:22:16.090Z,7.30
2023-02-14T23:24:45.494Z,7.33
2023-02-14T23:27:12.133Z,7.36
2023-02-14T23:29:38.778Z,7.41
2023-02-14T23:32:06.900Z,7.44
2023-02-14T23:34:36.036Z,7.49
2023-02-14T23:37:03.202Z,7.52
2023-02-14T23:39:33.409Z,7.54
2023-02-14T23:42:00.347Z,7.57
2023-02-14T23:44:28.213Z,7.58
2023-02-14T23:46:57.513Z,7.59
2023-02-14T23:49:24.976Z,7.62
2023-02-14T23:51:53.970Z,7.66
2023-02-14T23:54:21.826Z,7.69
2023-02-14T23:56:49.000Z,7.72
2023-02-14T23:59:16.328Z,7.76
